Ipuiuna, Brazil
Current Conditions -  °F | °C
As of 3:00 PM on Saturday 20 Dec 2014 (Local Time) from SBYS Reporting Station
Scattered Clouds Scattered Clouds  
Wind Chill: 88°   Ceiling: Unl
Heat Index: 91°   Visibility: 6mi
Dew Point: 68°   Wind: 7mph
Humidity: 52%   Direction: 60°ENE
Pressure: 29.88"   Gusts: NA
Location:  22.1°S, 46.19°W
Report Text: SBYS 201700Z 06006KT 9999 SCT035 SCT090 31/20 Q1012
Loading
Personal Weather Stations






























Interactive Weather Map New forecast layout! Learn more

10-Day Weather Forecast

Advertisements
Track Severe Weather on mobile